Time;durP1;ratioP1;P1;durP2;ratioP2;P2;SDS_P1;SDS_P2;PMS_P1;PMS_P2;Temp;Humidity;BMP_temperature;BMP_pressure;BME280_temperature;BME280_humidity;BME280_pressure;Samples;Min_cycle;Max_cycle;Signal;HPM_P1;HPM_P2
2023/04/12 00:00:26;;;;;;;4.82;1.75;;;5.90;99.90;;;;;;2112044;28;20214;-63
2023/04/12 00:01:48;;;;;;;4.25;1.88;;;6.10;99.90;;;;;;2109923;28;20222;-62
2023/04/12 00:03:09;;;;;;;2.55;1.40;;;6.00;99.90;;;;;;2111256;28;20268;-62
2023/04/12 00:04:33;;;;;;;4.00;1.52;;;6.10;99.90;;;;;;2110006;28;20190;-63
2023/04/12 00:05:54;;;;;;;4.15;1.73;;;6.10;99.90;;;;;;2110013;28;20603;-63
2023/04/12 00:07:17;;;;;;;3.35;1.50;;;6.10;99.90;;;;;;2110693;28;20647;-64
2023/04/12 00:08:38;;;;;;;1.98;1.25;;;6.00;99.90;;;;;;2113320;28;20194;-64
2023/04/12 00:09:59;;;;;;;4.57;1.55;;;6.00;99.90;;;;;;2113545;28;20197;-63
2023/04/12 00:11:20;;;;;;;4.47;1.30;;;6.00;99.90;;;;;;2112880;28;20198;-62
2023/04/12 00:12:41;;;;;;;7.55;2.13;;;6.00;99.90;;;;;;2112847;28;20653;-62
2023/04/12 00:14:02;;;;;;;1.92;1.42;;;5.90;99.90;;;;;;2112496;28;20909;-61
2023/04/12 00:15:23;;;;;;;4.28;1.63;;;6.00;99.90;;;;;;2112075;28;20214;-64
2023/04/12 00:16:44;;;;;;;3.13;1.60;;;6.00;99.90;;;;;;2111510;28;20285;-63
2023/04/12 00:18:06;;;;;;;4.68;1.92;;;5.90;99.90;;;;;;2109936;28;20261;-63
2023/04/12 00:19:29;;;;;;;4.35;2.10;;;6.00;99.90;;;;;;2110178;28;20570;-66
2023/04/12 00:20:51;;;;;;;2.17;1.67;;;5.90;99.90;;;;;;2101458;28;20199;-63
2023/04/12 00:22:12;;;;;;;6.15;1.88;;;5.90;99.90;;;;;;2107358;28;20186;-63
2023/04/12 00:23:33;;;;;;;3.45;2.47;;;5.80;99.90;;;;;;2109695;28;20189;-62
2023/04/12 00:24:54;;;;;;;2.60;1.55;;;5.70;99.90;;;;;;2113437;28;20269;-63
2023/04/12 00:26:15;;;;;;;2.53;1.50;;;5.60;99.90;;;;;;2113111;28;20269;-63
2023/04/12 00:27:36;;;;;;;2.97;1.55;;;5.60;99.90;;;;;;2117000;27;20226;-62
2023/04/12 00:28:57;;;;;;;2.70;1.80;;;5.60;99.90;;;;;;2115778;27;20191;-62
2023/04/12 00:30:18;;;;;;;3.30;1.60;;;5.50;99.90;;;;;;2111743;28;20246;-62
2023/04/12 00:31:39;;;;;;;3.20;1.60;;;5.50;99.90;;;;;;2110412;28;20186;-63
2023/04/12 00:33:00;;;;;;;1.95;1.50;;;5.50;99.90;;;;;;2110908;28;20201;-61
2023/04/12 00:34:21;;;;;;;4.75;1.88;;;5.50;99.90;;;;;;2110154;28;20186;-62
2023/04/12 00:35:42;;;;;;;2.78;1.80;;;5.50;99.90;;;;;;2109365;28;20259;-61
2023/04/12 00:37:03;;;;;;;8.30;1.98;;;5.60;99.90;;;;;;2113789;28;20268;-62
2023/04/12 00:38:24;;;;;;;2.17;1.50;;;5.50;99.90;;;;;;2113918;28;20259;-62
2023/04/12 00:39:45;;;;;;;5.13;1.67;;;5.60;99.90;;;;;;2112683;28;20222;-63
2023/04/12 00:41:06;;;;;;;6.20;1.77;;;5.50;99.90;;;;;;2112312;28;20254;-63
2023/04/12 00:42:27;;;;;;;2.28;1.60;;;5.50;99.90;;;;;;2111956;28;20667;-63
2023/04/12 00:43:49;;;;;;;3.22;1.70;;;5.60;99.90;;;;;;2111796;28;20198;-62
2023/04/12 00:45:10;;;;;;;2.17;1.40;;;5.60;99.90;;;;;;2103165;28;20699;-62
2023/04/12 00:46:32;;;;;;;6.47;1.67;;;5.70;99.90;;;;;;2107655;28;20268;-64
2023/04/12 00:47:55;;;;;;;3.50;1.38;;;5.70;99.90;;;;;;2109711;28;20608;-63
2023/04/12 00:49:16;;;;;;;4.82;1.60;;;5.60;99.90;;;;;;2105992;28;20193;-62
2023/04/12 00:50:43;;;;;;;3.05;1.58;;;5.60;99.90;;;;;;2110940;28;20186;-62
2023/04/12 00:52:07;;;;;;;5.25;1.85;;;5.70;99.90;;;;;;2109006;28;20194;-62
2023/04/12 00:53:28;;;;;;;3.22;1.60;;;5.70;99.90;;;;;;2109653;28;20190;-63
2023/04/12 00:54:50;;;;;;;2.55;1.40;;;5.70;99.90;;;;;;2109274;28;20190;-63
2023/04/12 00:56:12;;;;;;;2.00;1.50;;;5.60;99.90;;;;;;2120933;27;20246;-62
2023/04/12 00:57:38;;;;;;;2.35;1.88;;;5.70;99.90;;;;;;2115939;27;20575;-62
2023/04/12 00:59:00;;;;;;;2.70;1.35;;;5.60;99.90;;;;;;2111215;28;20258;-62
2023/04/12 01:00:22;;;;;;;3.85;1.50;;;5.60;99.90;;;;;;2113127;28;20748;-62
2023/04/12 01:01:44;;;;;;;2.30;1.58;;;5.60;99.90;;;;;;2111030;28;20194;-61
2023/04/12 01:03:07;;;;;;;3.17;1.45;;;5.60;99.90;;;;;;2111919;28;20190;-62
2023/04/12 01:04:28;;;;;;;2.78;1.48;;;5.70;99.90;;;;;;2112320;28;20190;-64
2023/04/12 01:06:08;;;;;;;3.20;1.55;;;5.60;99.90;;;;;;2111405;28;20221;-63
2023/04/12 01:07:54;;;;;;;3.58;1.52;;;5.60;99.90;;;;;;2117218;27;20268;-64
2023/04/12 01:09:29;;;;;;;3.13;1.40;;;5.60;99.90;;;;;;2105415;28;20214;-63
2023/04/12 01:11:16;;;;;;;2.95;2.05;;;5.50;99.90;;;;;;2110219;28;20194;-63
2023/04/12 01:12:50;;;;;;;3.58;1.50;;;5.40;99.90;;;;;;2110084;28;20202;-63
2023/04/12 01:14:39;;;;;;;1.88;1.35;;;5.50;99.90;;;;;;2111330;28;20885;-62
2023/04/12 01:16:13;;;;;;;2.13;1.50;;;5.50;99.90;;;;;;2111371;28;20194;-63
2023/04/12 01:17:46;;;;;;;2.97;1.60;;;5.50;99.90;;;;;;2102858;28;20183;-63
2023/04/12 01:19:32;;;;;;;4.03;1.52;;;5.50;99.90;;;;;;2108885;28;20198;-63
2023/04/12 01:21:02;;;;;;;1.83;1.40;;;5.40;99.90;;;;;;2094170;28;20204;-62
2023/04/12 01:22:52;;;;;;;3.78;1.77;;;5.50;99.90;;;;;;2110590;28;20205;-62
2023/04/12 01:24:42;;;;;;;2.35;1.67;;;5.50;99.90;;;;;;2092862;28;20200;-63
2023/04/12 01:26:36;;;;;;;3.00;1.50;;;5.50;99.90;;;;;;2112065;28;20221;-62
2023/04/12 01:28:02;;;;;;;3.13;1.45;;;5.50;99.90;;;;;;2103883;28;20218;-62
2023/04/12 01:29:27;;;;;;;3.08;1.60;;;5.50;99.90;;;;;;2101100;28;20245;-62
2023/04/12 01:30:50;;;;;;;4.28;1.45;;;5.60;99.90;;;;;;2098706;28;20225;-63
2023/04/12 01:32:12;;;;;;;4.13;1.52;;;5.60;99.90;;;;;;2107487;28;20186;-63
2023/04/12 01:33:36;;;;;;;4.00;1.70;;;5.50;99.90;;;;;;2116119;27;20213;-62
2023/04/12 01:34:59;;;;;;;4.00;1.92;;;5.60;99.90;;;;;;2107039;28;20202;-63
2023/04/12 01:36:21;;;;;;;3.53;1.45;;;5.60;99.90;;;;;;2101744;28;20194;-63
2023/04/12 01:37:43;;;;;;;2.70;1.88;;;5.60;99.90;;;;;;2103762;28;20191;-63
2023/04/12 01:39:06;;;;;;;2.67;1.63;;;5.60;99.90;;;;;;2109470;28;20269;-63
2023/04/12 01:40:29;;;;;;;3.38;1.92;;;5.70;99.90;;;;;;2103419;28;20191;-63
2023/04/12 01:41:50;;;;;;;2.92;1.70;;;5.70;99.90;;;;;;2101261;28;20656;-62
2023/04/12 01:43:14;;;;;;;2.15;1.50;;;5.60;99.90;;;;;;2118432;27;20217;-63
2023/04/12 01:44:35;;;;;;;6.72;2.33;;;5.60;99.90;;;;;;2114849;27;20266;-63
2023/04/12 01:45:56;;;;;;;3.35;1.70;;;5.50;99.90;;;;;;2110095;28;20222;-63
2023/04/12 01:47:18;;;;;;;2.17;1.40;;;5.50;99.90;;;;;;2110079;28;20229;-63
2023/04/12 01:48:48;;;;;;;4.05;1.48;;;5.60;99.90;;;;;;2110703;28;20181;-63
2023/04/12 01:50:17;;;;;;;6.45;1.70;;;5.50;99.90;;;;;;2111077;28;20198;-63
2023/04/12 01:51:50;;;;;;;2.83;1.60;;;5.40;99.90;;;;;;2111812;28;20210;-63
2023/04/12 01:53:56;;;;;;;2.88;1.60;;;5.30;99.90;;;;;;2109686;28;20589;-63
2023/04/12 01:55:21;;;;;;;4.03;1.60;;;5.30;99.90;;;;;;2110924;28;20214;-63
2023/04/12 01:56:49;;;;;;;3.85;1.65;;;5.30;99.90;;;;;;2110707;28;20189;-63
2023/04/12 01:58:14;;;;;;;2.70;1.42;;;5.40;99.90;;;;;;2111633;28;20197;-63
2023/04/12 01:59:41;;;;;;;4.95;2.03;;;5.40;99.90;;;;;;2112240;28;20240;-63
2023/04/12 02:01:03;;;;;;;6.07;1.80;;;5.40;99.90;;;;;;2119935;27;20249;-63
2023/04/12 02:02:25;;;;;;;2.60;1.40;;;5.40;99.90;;;;;;2114997;28;20190;-63
2023/04/12 02:03:48;;;;;;;3.78;1.80;;;5.40;99.90;;;;;;2108411;28;20190;-63
2023/04/12 02:05:10;;;;;;;5.90;1.77;;;5.40;99.90;;;;;;2102568;28;20368;-63
2023/04/12 02:06:33;;;;;;;3.70;1.67;;;5.40;99.90;;;;;;2105488;28;20585;-64
2023/04/12 02:07:55;;;;;;;2.95;1.83;;;5.40;99.90;;;;;;2102567;28;20205;-62
2023/04/12 02:09:16;;;;;;;3.78;1.90;;;5.50;99.90;;;;;;2109765;28;20193;-63
2023/04/12 02:10:39;;;;;;;5.18;1.75;;;5.50;99.90;;;;;;2110665;28;20194;-64
2023/04/12 02:12:00;;;;;;;3.70;1.80;;;5.60;99.90;;;;;;2110276;28;20183;-63
2023/04/12 02:13:21;;;;;;;8.75;2.13;;;5.70;99.90;;;;;;2109748;28;20677;-63
2023/04/12 02:14:42;;;;;;;5.72;1.85;;;5.70;99.90;;;;;;2110060;28;20197;-63
2023/04/12 02:16:03;;;;;;;4.07;2.25;;;5.70;99.90;;;;;;2109761;28;20197;-62
2023/04/12 02:17:24;;;;;;;2.28;1.77;;;5.70;99.90;;;;;;2109565;28;20286;-62
2023/04/12 02:18:46;;;;;;;3.67;2.20;;;5.60;99.90;;;;;;2112917;28;20192;-62
2023/04/12 02:20:10;;;;;;;2.65;2.10;;;5.60;99.90;;;;;;2112757;28;20637;-62
2023/04/12 02:21:42;;;;;;;3.08;2.28;;;5.50;99.90;;;;;;2110747;28;20258;-62
2023/04/12 02:23:04;;;;;;;5.18;2.60;;;5.60;99.90;;;;;;2109033;28;20267;-62
2023/04/12 02:24:26;;;;;;;3.60;2.33;;;5.50;99.90;;;;;;2109037;28;20191;-61
2023/04/12 02:25:47;;;;;;;6.53;2.20;;;5.50;99.90;;;;;;2111409;28;20286;-62
2023/04/12 02:27:08;;;;;;;3.72;2.63;;;5.50;99.90;;;;;;2112957;28;20197;-62
2023/04/12 02:28:29;;;;;;;3.38;2.40;;;5.40;99.90;;;;;;2111095;28;20194;-62
2023/04/12 02:29:50;;;;;;;4.07;2.30;;;5.30;99.90;;;;;;2111492;28;20186;-62
2023/04/12 02:31:12;;;;;;;6.43;2.30;;;5.30;99.90;;;;;;2111215;28;20185;-63
2023/04/12 02:32:42;;;;;;;7.50;2.47;;;5.30;99.90;;;;;;2111450;28;20186;-62
2023/04/12 02:34:04;;;;;;;5.80;2.58;;;5.30;99.90;;;;;;2111766;28;20201;-62
2023/04/12 02:35:26;;;;;;;3.28;2.22;;;5.20;99.90;;;;;;2110991;28;20216;-62
2023/04/12 02:36:48;;;;;;;3.53;2.40;;;5.20;99.90;;;;;;2110849;28;20222;-62
2023/04/12 02:38:09;;;;;;;2.95;2.35;;;5.20;99.90;;;;;;2111125;28;20194;-61
2023/04/12 02:39:31;;;;;;;5.25;2.63;;;5.20;99.90;;;;;;2110066;28;20285;-62
2023/04/12 02:40:52;;;;;;;3.40;2.65;;;5.20;99.90;;;;;;2110644;28;20602;-62
2023/04/12 02:42:13;;;;;;;4.80;2.58;;;5.20;99.90;;;;;;2110734;28;20198;-61
2023/04/12 02:43:34;;;;;;;4.53;3.13;;;5.20;99.90;;;;;;2118032;27;20185;-62
2023/04/12 02:44:55;;;;;;;4.68;3.10;;;5.20;99.90;;;;;;2118420;27;20285;-62
2023/04/12 02:46:26;;;;;;;5.78;2.92;;;5.20;99.90;;;;;;2117738;27;20201;-63
2023/04/12 02:47:47;;;;;;;6.53;3.40;;;5.20;99.90;;;;;;2111761;28;20202;-62
2023/04/12 02:49:08;;;;;;;7.13;3.13;;;5.20;99.90;;;;;;2110621;28;20190;-63
2023/04/12 02:50:29;;;;;;;7.70;3.40;;;5.10;99.90;;;;;;2113419;28;20250;-62
2023/04/12 02:51:50;;;;;;;5.47;3.00;;;5.10;99.90;;;;;;2113088;28;20198;-63
2023/04/12 02:53:11;;;;;;;7.72;3.58;;;5.10;99.90;;;;;;2113391;28;20267;-61
2023/04/12 02:54:32;;;;;;;5.38;3.33;;;5.10;99.90;;;;;;2113211;28;20578;-62
2023/04/12 02:55:53;;;;;;;5.00;3.10;;;5.20;99.90;;;;;;2103915;28;20290;-62
2023/04/12 02:57:15;;;;;;;4.90;3.45;;;5.20;99.90;;;;;;2108765;28;20205;-62
2023/04/12 02:58:36;;;;;;;6.03;2.85;;;5.10;99.90;;;;;;2109432;28;20695;-61
2023/04/12 02:59:57;;;;;;;5.00;2.70;;;5.10;99.90;;;;;;2109772;28;20195;-62
2023/04/12 03:01:19;;;;;;;3.53;2.65;;;5.10;99.90;;;;;;2109052;28;20187;-63
2023/04/12 03:02:41;;;;;;;5.03;3.03;;;5.10;99.90;;;;;;2113653;28;20221;-63
2023/04/12 03:04:02;;;;;;;3.75;2.55;;;5.10;99.90;;;;;;2110189;28;20200;-63
2023/04/12 03:05:23;;;;;;;5.25;2.65;;;5.10;99.90;;;;;;2114753;28;20210;-64
2023/04/12 03:06:52;;;;;;;7.03;3.10;;;5.10;99.90;;;;;;2113098;28;20186;-63
2023/04/12 03:08:13;;;;;;;6.85;2.40;;;5.10;99.90;;;;;;2113039;28;20251;-63
2023/04/12 03:09:37;;;;;;;4.63;2.70;;;5.10;99.90;;;;;;2112907;28;20189;-62
2023/04/12 03:10:58;;;;;;;3.40;2.80;;;5.10;99.90;;;;;;2113254;28;20190;-63
2023/04/12 03:12:19;;;;;;;4.13;2.50;;;5.00;99.90;;;;;;2113041;28;20194;-63
2023/04/12 03:13:40;;;;;;;4.07;1.98;;;5.10;99.90;;;;;;2112610;28;20197;-62
2023/04/12 03:15:01;;;;;;;3.25;2.20;;;5.10;99.90;;;;;;2113046;28;20198;-63
2023/04/12 03:16:28;;;;;;;3.00;2.08;;;5.10;99.90;;;;;;2111396;28;20233;-64
2023/04/12 03:17:50;;;;;;;2.47;1.88;;;5.10;99.90;;;;;;2111871;28;20242;-62
2023/04/12 03:19:11;;;;;;;4.47;2.20;;;5.20;99.90;;;;;;2112437;28;20198;-65
2023/04/12 03:20:32;;;;;;;4.22;2.03;;;5.20;99.90;;;;;;2110795;28;20334;-62
2023/04/12 03:21:53;;;;;;;5.90;2.10;;;5.20;99.90;;;;;;2109897;28;20262;-63
2023/04/12 03:23:14;;;;;;;3.40;2.17;;;5.20;99.90;;;;;;2111382;28;20224;-63
2023/04/12 03:24:36;;;;;;;3.70;1.67;;;5.10;99.90;;;;;;2114042;28;20194;-63
2023/04/12 03:25:57;;;;;;;2.72;2.00;;;5.10;99.90;;;;;;2112704;28;20309;-62
2023/04/12 03:27:17;;;;;;;3.08;1.60;;;5.10;99.90;;;;;;2114397;28;20833;-63
2023/04/12 03:28:40;;;;;;;2.80;1.80;;;5.10;99.90;;;;;;2113073;28;21111;-63
2023/04/12 03:30:01;;;;;;;2.60;1.30;;;5.10;99.90;;;;;;2120698;27;20197;-63
2023/04/12 03:31:22;;;;;;;2.60;1.90;;;5.10;99.90;;;;;;2114435;28;20186;-63
2023/04/12 03:32:43;;;;;;;4.15;2.22;;;5.10;99.90;;;;;;2111991;28;20244;-63
2023/04/12 03:34:05;;;;;;;1.80;1.48;;;5.10;99.90;;;;;;2112126;28;20197;-63
2023/04/12 03:35:26;;;;;;;2.85;1.70;;;5.10;99.90;;;;;;2111363;28;20209;-62
2023/04/12 03:36:47;;;;;;;7.57;3.97;;;5.10;99.90;;;;;;2110692;28;20186;-63
2023/04/12 03:38:08;;;;;;;3.35;1.90;;;5.10;99.90;;;;;;2110679;28;20273;-62
2023/04/12 03:39:29;;;;;;;4.43;1.65;;;5.20;99.90;;;;;;2112974;28;20242;-62
2023/04/12 03:40:50;;;;;;;1.40;1.30;;;5.20;99.90;;;;;;2112123;28;20193;-63
2023/04/12 03:42:11;;;;;;;1.75;1.52;;;5.10;99.90;;;;;;2112323;28;20619;-63
2023/04/12 03:43:34;;;;;;;3.78;2.03;;;5.10;99.90;;;;;;2112610;28;20220;-64
2023/04/12 03:44:56;;;;;;;3.45;1.50;;;5.10;99.90;;;;;;2113115;28;20264;-63
2023/04/12 03:46:17;;;;;;;3.40;1.50;;;5.20;99.90;;;;;;2111679;28;20238;-62
2023/04/12 03:47:38;;;;;;;5.00;2.00;;;5.20;99.90;;;;;;2111117;28;20194;-62
2023/04/12 03:48:59;;;;;;;2.42;1.63;;;5.20;99.90;;;;;;2111644;28;20186;-62
2023/04/12 03:50:21;;;;;;;2.35;1.60;;;5.20;99.90;;;;;;2111037;28;20186;-62
2023/04/12 03:51:42;;;;;;;3.15;1.65;;;5.20;99.90;;;;;;2109361;28;20605;-63
2023/04/12 03:53:03;;;;;;;5.03;1.90;;;5.20;99.90;;;;;;2113835;28;20666;-62
2023/04/12 03:54:24;;;;;;;4.15;2.10;;;5.20;99.90;;;;;;2113793;28;20195;-63
2023/04/12 03:55:45;;;;;;;2.88;1.70;;;5.20;99.90;;;;;;2112298;28;20225;-63
2023/04/12 03:57:06;;;;;;;3.92;1.80;;;5.20;99.90;;;;;;2113066;28;20216;-63
2023/04/12 03:58:27;;;;;;;2.13;1.60;;;5.20;99.90;;;;;;2112530;28;20244;-61
2023/04/12 03:59:49;;;;;;;4.28;1.80;;;5.20;99.90;;;;;;2111987;28;20219;-63
2023/04/12 04:01:12;;;;;;;1.42;1.33;;;5.20;99.90;;;;;;2111445;28;20277;-62
2023/04/12 04:02:33;;;;;;;2.67;1.98;;;5.20;99.90;;;;;;2101906;28;20710;-62
2023/04/12 04:03:54;;;;;;;2.85;2.03;;;5.20;99.90;;;;;;2108412;28;20195;-63
2023/04/12 04:05:15;;;;;;;1.60;1.40;;;5.20;99.90;;;;;;2111008;28;20198;-62
2023/04/12 04:06:37;;;;;;;2.25;1.63;;;5.10;99.90;;;;;;2109994;28;20220;-62
2023/04/12 04:08:01;;;;;;;2.40;1.60;;;5.10;99.90;;;;;;2112472;28;20194;-63
2023/04/12 04:09:22;;;;;;;2.03;1.48;;;5.10;99.90;;;;;;2112460;28;20576;-63
2023/04/12 04:10:43;;;;;;;2.80;1.52;;;5.20;99.90;;;;;;2112776;28;20843;-62
2023/04/12 04:12:04;;;;;;;2.38;1.55;;;5.10;99.90;;;;;;2111667;28;20190;-62
2023/04/12 04:13:25;;;;;;;3.17;1.65;;;5.20;99.90;;;;;;2110631;28;20235;-62
2023/04/12 04:14:46;;;;;;;2.45;1.70;;;5.30;99.90;;;;;;2107112;28;20191;-63
2023/04/12 04:16:11;;;;;;;2.30;1.60;;;5.20;99.90;;;;;;2112861;28;20228;-65
2023/04/12 04:17:32;;;;;;;2.30;1.40;;;5.20;99.90;;;;;;2111680;28;20195;-64
2023/04/12 04:18:53;;;;;;;4.50;1.80;;;5.30;99.90;;;;;;2111297;28;20202;-63
2023/04/12 04:20:14;;;;;;;4.65;1.80;;;5.30;99.90;;;;;;2111263;28;20569;-63
2023/04/12 04:21:35;;;;;;;4.78;1.40;;;5.40;99.90;;;;;;2110095;28;20690;-63
2023/04/12 04:22:57;;;;;;;3.92;1.65;;;5.50;99.90;;;;;;2110046;28;20289;-63
2023/04/12 04:24:17;;;;;;;5.40;2.60;;;5.50;99.90;;;;;;2112637;28;20581;-63
2023/04/12 04:25:38;;;;;;;1.88;1.50;;;5.50;99.90;;;;;;2113221;28;20232;-64
2023/04/12 04:26:59;;;;;;;4.68;1.83;;;5.50;99.90;;;;;;2112648;28;20277;-63
2023/04/12 04:28:21;;;;;;;3.33;1.95;;;5.50;99.90;;;;;;2112376;28;20236;-63
2023/04/12 04:29:44;;;;;;;5.05;1.95;;;5.50;99.90;;;;;;2112611;28;20201;-63
2023/04/12 04:31:05;;;;;;;6.00;3.50;;;5.60;99.90;;;;;;2111729;28;20226;-63
2023/04/12 04:32:27;;;;;;;4.63;2.88;;;5.60;99.90;;;;;;2110874;28;20674;-63
2023/04/12 04:33:48;;;;;;;5.13;2.35;;;5.60;99.90;;;;;;2111761;28;20194;-62
2023/04/12 04:35:09;;;;;;;2.88;1.83;;;5.60;99.90;;;;;;2110645;28;20190;-63
2023/04/12 04:36:35;;;;;;;3.08;2.05;;;5.60;99.90;;;;;;2110272;28;20667;-63
2023/04/12 04:37:57;;;;;;;3.10;1.98;;;5.60;99.90;;;;;;2109980;28;20193;-62
2023/04/12 04:39:18;;;;;;;2.42;1.63;;;5.70;99.90;;;;;;2109435;28;20218;-63
2023/04/12 04:40:39;;;;;;;3.40;1.70;;;5.70;99.90;;;;;;2113521;28;20203;-62
2023/04/12 04:42:00;;;;;;;2.13;1.85;;;5.70;99.90;;;;;;2113750;28;20690;-61
2023/04/12 04:43:21;;;;;;;4.28;1.70;;;5.70;99.90;;;;;;2112435;28;20196;-62
2023/04/12 04:44:43;;;;;;;3.78;1.85;;;5.70;99.90;;;;;;2116012;27;20238;-63
2023/04/12 04:46:04;;;;;;;2.75;1.60;;;5.70;99.90;;;;;;2112219;28;20214;-62
2023/04/12 04:47:29;;;;;;;3.58;1.52;;;5.70;99.90;;;;;;2111195;28;20290;-62
2023/04/12 04:48:54;;;;;;;2.33;1.52;;;5.60;99.90;;;;;;2111791;28;20243;-62
2023/04/12 04:50:15;;;;;;;4.65;2.17;;;5.80;99.90;;;;;;2111694;28;20262;-62
2023/04/12 04:51:36;;;;;;;2.95;1.60;;;5.80;99.90;;;;;;2111050;28;20355;-65
2023/04/12 04:52:57;;;;;;;3.53;1.50;;;5.80;99.90;;;;;;2111050;28;20190;-62
2023/04/12 04:54:18;;;;;;;4.32;1.75;;;5.80;99.90;;;;;;2109787;28;20190;-62
2023/04/12 04:55:40;;;;;;;2.38;1.40;;;5.80;99.90;;;;;;2109879;28;20589;-63
2023/04/12 04:57:01;;;;;;;3.08;1.30;;;5.80;99.90;;;;;;2109762;28;20205;-63
2023/04/12 04:58:22;;;;;;;2.45;1.33;;;5.80;99.90;;;;;;2101066;28;20195;-64
2023/04/12 04:59:43;;;;;;;4.75;1.55;;;5.90;99.90;;;;;;2111108;27;20696;-63
2023/04/12 05:01:05;;;;;;;2.97;1.42;;;6.00;99.90;;;;;;2112005;27;20197;-62
2023/04/12 05:02:27;;;;;;;3.55;1.85;;;6.00;99.90;;;;;;2113651;27;20193;-63
2023/04/12 05:03:48;;;;;;;1.90;1.50;;;5.90;99.90;;;;;;2113450;27;20186;-62
2023/04/12 05:05:14;;;;;;;4.00;1.80;;;5.90;99.90;;;;;;2112048;28;20197;-63
2023/04/12 05:06:35;;;;;;;3.40;1.50;;;5.90;99.90;;;;;;2111159;28;20718;-63
2023/04/12 05:07:57;;;;;;;2.15;1.60;;;6.00;99.90;;;;;;2111110;28;20221;-63
2023/04/12 05:09:18;;;;;;;3.40;1.85;;;6.00;99.90;;;;;;2111057;28;20271;-63
2023/04/12 05:10:39;;;;;;;2.72;1.60;;;6.10;99.90;;;;;;2110459;28;20223;-62
2023/04/12 05:12:00;;;;;;;3.05;1.60;;;6.10;99.90;;;;;;2109577;28;20194;-63
2023/04/12 05:13:21;;;;;;;2.22;1.58;;;6.10;99.90;;;;;;2114020;28;20190;-63
2023/04/12 05:14:42;;;;;;;2.15;1.67;;;6.30;99.90;;;;;;2113507;28;20666;-63
2023/04/12 05:16:07;;;;;;;4.78;2.47;;;6.40;99.90;;;;;;2108517;28;20225;-63
2023/04/12 05:17:28;;;;;;;2.58;1.50;;;6.30;99.90;;;;;;2112405;28;20221;-63
2023/04/12 05:18:49;;;;;;;3.17;1.60;;;6.30;99.90;;;;;;2112348;28;20280;-63
2023/04/12 05:20:10;;;;;;;4.45;1.80;;;6.30;99.90;;;;;;2111626;28;20607;-62
2023/04/12 05:21:32;;;;;;;3.70;1.67;;;6.30;99.90;;;;;;2110636;28;20247;-62
2023/04/12 05:22:53;;;;;;;3.47;1.52;;;6.20;99.90;;;;;;2106773;28;20819;-63
2023/04/12 05:24:14;;;;;;;6.47;2.78;;;6.20;99.90;;;;;;2107973;28;20595;-61
2023/04/12 05:25:35;;;;;;;6.55;1.98;;;6.20;99.90;;;;;;2110308;28;20218;-63
2023/04/12 05:26:57;;;;;;;4.35;2.17;;;6.20;99.90;;;;;;2110691;28;20218;-63
2023/04/12 05:28:18;;;;;;;4.10;1.85;;;6.20;99.90;;;;;;2113967;28;20217;-63
2023/04/12 05:29:39;;;;;;;3.80;2.42;;;6.30;99.90;;;;;;2113186;28;20236;-62
2023/04/12 05:31:01;;;;;;;3.95;2.03;;;6.30;99.90;;;;;;2112837;28;20190;-62
2023/04/12 05:32:23;;;;;;;3.33;1.90;;;6.40;99.90;;;;;;2112484;28;20319;-62
2023/04/12 05:33:44;;;;;;;3.17;1.98;;;6.40;99.90;;;;;;2108261;28;20723;-65
2023/04/12 05:35:06;;;;;;;5.35;1.70;;;6.40;99.90;;;;;;2106846;28;20679;-62
2023/04/12 05:36:27;;;;;;;4.50;2.53;;;6.40;99.90;;;;;;2110793;28;20399;-62
2023/04/12 05:37:48;;;;;;;4.43;2.92;;;6.30;99.90;;;;;;2110673;28;20190;-63
2023/04/12 05:39:09;;;;;;;3.13;2.55;;;6.30;99.90;;;;;;2110334;28;20291;-62
2023/04/12 05:40:30;;;;;;;3.75;2.38;;;6.30;99.90;;;;;;2109738;28;20958;-63
2023/04/12 05:41:52;;;;;;;2.05;1.60;;;6.40;99.90;;;;;;2109116;28;20247;-63
2023/04/12 05:43:13;;;;;;;3.25;1.70;;;6.40;99.90;;;;;;2109244;28;20269;-63
2023/04/12 05:44:37;;;;;;;3.13;1.50;;;6.40;99.90;;;;;;2112699;28;20625;-64
2023/04/12 05:45:58;;;;;;;3.60;1.60;;;6.40;99.90;;;;;;2113112;28;20214;-64
2023/04/12 05:47:19;;;;;;;2.55;1.88;;;6.40;99.90;;;;;;2112308;28;20306;-64
2023/04/12 05:48:40;;;;;;;2.78;1.60;;;6.40;99.90;;;;;;2111972;28;20323;-64
2023/04/12 05:50:01;;;;;;;3.17;1.60;;;6.50;99.90;;;;;;2111395;28;20273;-64
2023/04/12 05:51:22;;;;;;;2.80;1.85;;;6.40;99.90;;;;;;2110354;28;20240;-64
2023/04/12 05:52:43;;;;;;;3.58;2.22;;;6.40;99.90;;;;;;2111184;28;20718;-63
2023/04/12 05:54:06;;;;;;;3.33;2.00;;;6.40;99.90;;;;;;2109326;28;20187;-64
2023/04/12 05:55:28;;;;;;;2.70;1.73;;;6.50;99.90;;;;;;2100994;28;20753;-64
2023/04/12 05:56:50;;;;;;;49.33;21.40;;;6.40;99.90;;;;;;2106611;28;20185;-63
2023/04/12 05:58:11;;;;;;;7.47;4.18;;;6.40;99.90;;;;;;2109694;28;20195;-63
2023/04/12 05:59:33;;;;;;;1.95;1.75;;;6.50;99.90;;;;;;2108778;28;20306;-63
2023/04/12 06:00:54;;;;;;;2.63;1.80;;;6.40;99.90;;;;;;2112188;28;20243;-63
2023/04/12 06:02:15;;;;;;;3.20;1.80;;;6.40;99.90;;;;;;2110973;28;20197;-63
2023/04/12 06:03:40;;;;;;;2.53;1.75;;;6.40;99.90;;;;;;2111186;28;20190;-64
2023/04/12 06:05:02;;;;;;;3.85;1.98;;;6.40;99.90;;;;;;2112353;28;20900;-63
2023/04/12 06:06:23;;;;;;;3.92;1.70;;;6.30;99.90;;;;;;2110300;28;20201;-64
2023/04/12 06:07:46;;;;;;;4.07;2.03;;;6.30;99.90;;;;;;2111068;28;20190;-64
2023/04/12 06:09:09;;;;;;;2.30;1.75;;;6.30;99.90;;;;;;2110343;28;20186;-64
2023/04/12 06:10:30;;;;;;;5.95;1.90;;;6.30;99.90;;;;;;2110903;28;20182;-63
2023/04/12 06:11:52;;;;;;;1.70;1.30;;;6.30;99.90;;;;;;2109125;28;20293;-64
2023/04/12 06:13:13;;;;;;;4.05;2.03;;;6.30;99.90;;;;;;2113037;28;20182;-64
2023/04/12 06:14:34;;;;;;;5.55;2.90;;;6.30;99.90;;;;;;2110365;28;20193;-64
2023/04/12 06:15:55;;;;;;;3.53;2.00;;;6.30;99.90;;;;;;2113228;28;20218;-64
2023/04/12 06:17:16;;;;;;;5.53;3.08;;;6.40;99.90;;;;;;2114135;28;20203;-63
2023/04/12 06:18:37;;;;;;;5.95;3.20;;;6.50;99.90;;;;;;2114223;28;20202;-64
2023/04/12 06:19:58;;;;;;;6.45;2.25;;;6.60;99.90;;;;;;2113563;28;20196;-64
2023/04/12 06:21:19;;;;;;;2.70;1.77;;;6.60;99.90;;;;;;2112517;28;20233;-64
2023/04/12 06:22:40;;;;;;;2.85;1.90;;;6.60;99.90;;;;;;2112931;28;20197;-63
2023/04/12 06:24:01;;;;;;;4.65;2.70;;;6.60;99.90;;;;;;2112198;28;20216;-64
2023/04/12 06:25:23;;;;;;;2.85;2.00;;;6.70;99.90;;;;;;2111890;28;20186;-64
2023/04/12 06:26:45;;;;;;;7.72;1.70;;;6.60;99.90;;;;;;2111848;28;20632;-63
2023/04/12 06:28:06;;;;;;;2.30;1.88;;;6.50;99.90;;;;;;2111594;28;20685;-63
2023/04/12 06:29:27;;;;;;;4.32;1.92;;;6.50;99.90;;;;;;2110969;28;20193;-64
2023/04/12 06:30:48;;;;;;;2.00;1.80;;;6.60;99.90;;;;;;2110350;28;20190;-63
2023/04/12 06:32:09;;;;;;;2.95;2.03;;;6.60;99.90;;;;;;2112590;28;20201;-64
2023/04/12 06:33:30;;;;;;;2.70;1.90;;;6.70;99.90;;;;;;2113468;28;20583;-64
2023/04/12 06:34:52;;;;;;;2.25;1.70;;;6.80;99.90;;;;;;2113861;28;20185;-64
2023/04/12 06:36:14;;;;;;;3.80;1.98;;;6.80;99.90;;;;;;2112763;28;20189;-64
2023/04/12 06:37:35;;;;;;;1.85;1.52;;;6.90;99.90;;;;;;2112610;28;20196;-63
2023/04/12 06:38:56;;;;;;;5.43;2.00;;;7.00;99.90;;;;;;2112423;28;20199;-64
2023/04/12 06:40:17;;;;;;;1.80;1.55;;;6.90;99.90;;;;;;2111709;28;20200;-66
2023/04/12 06:41:39;;;;;;;2.72;2.17;;;6.90;99.90;;;;;;2110637;28;20225;-67
2023/04/12 06:43:00;;;;;;;2.28;1.85;;;7.00;99.90;;;;;;2110587;28;20201;-64
2023/04/12 06:44:21;;;;;;;2.17;1.92;;;6.90;99.90;;;;;;2114626;28;20205;-64
2023/04/12 06:45:42;;;;;;;3.20;2.10;;;7.00;99.90;;;;;;2114266;28;22177;-64
2023/04/12 06:47:03;;;;;;;3.80;1.88;;;7.00;99.90;;;;;;2113248;28;20228;-63
2023/04/12 06:48:24;;;;;;;2.55;1.98;;;7.10;99.90;;;;;;2113296;27;20220;-64
2023/04/12 06:49:45;;;;;;;4.78;2.58;;;7.10;99.90;;;;;;2115653;27;20194;-63
2023/04/12 06:51:06;;;;;;;3.03;2.30;;;7.10;99.90;;;;;;2112316;28;20195;-63
2023/04/12 06:52:27;;;;;;;4.45;2.17;;;7.10;99.90;;;;;;2111712;28;20186;-63
2023/04/12 06:53:49;;;;;;;4.80;2.20;;;7.10;99.90;;;;;;2111602;28;20307;-63
2023/04/12 06:55:10;;;;;;;3.25;2.53;;;7.20;99.90;;;;;;2110673;28;20189;-63
2023/04/12 06:56:31;;;;;;;2.50;2.30;;;7.20;99.90;;;;;;2109757;28;20285;-63
2023/04/12 06:57:52;;;;;;;4.10;2.40;;;7.20;99.90;;;;;;2113972;28;20200;-63
2023/04/12 06:59:13;;;;;;;2.95;2.00;;;7.30;99.90;;;;;;2113151;28;20759;-63
2023/04/12 07:00:34;;;;;;;2.58;1.80;;;7.30;99.90;;;;;;2113182;28;20193;-63
2023/04/12 07:01:55;;;;;;;2.78;2.10;;;7.40;99.90;;;;;;2113976;28;20228;-63
2023/04/12 07:03:16;;;;;;;4.07;2.35;;;7.50;99.90;;;;;;2112297;28;20198;-63
2023/04/12 07:04:37;;;;;;;3.08;2.00;;;7.50;99.90;;;;;;2116292;27;20289;-63
2023/04/12 07:06:01;;;;;;;2.80;2.08;;;7.40;99.90;;;;;;2110908;28;20237;-64
2023/04/12 07:07:22;;;;;;;5.63;2.42;;;7.40;99.90;;;;;;2110748;28;20197;-64
2023/04/12 07:08:43;;;;;;;3.10;2.20;;;7.50;99.90;;;;;;2111207;28;20185;-63
2023/04/12 07:10:05;;;;;;;3.30;1.95;;;7.60;99.90;;;;;;2111582;28;20188;-62
2023/04/12 07:11:27;;;;;;;3.22;1.80;;;7.70;99.90;;;;;;2112494;28;20201;-63
2023/04/12 07:12:48;;;;;;;2.05;1.85;;;7.90;99.90;;;;;;2113331;28;20243;-63
2023/04/12 07:14:09;;;;;;;2.60;2.08;;;7.90;99.90;;;;;;2113863;28;20213;-63
2023/04/12 07:15:30;;;;;;;1.92;1.80;;;8.00;99.90;;;;;;2112134;28;20270;-61
2023/04/12 07:16:51;;;;;;;2.97;2.30;;;8.00;99.90;;;;;;2114686;27;20190;-62